Time;durP1;ratioP1;P1;durP2;ratioP2;P2;SDS_P1;SDS_P2;PMS_P1;PMS_P2;Temp;Humidity;BMP_temperature;BMP_pressure;BME280_temperature;BME280_humidity;BME280_pressure;Samples;Min_cycle;Max_cycle;Signal;HPM_P1;HPM_P2
2022/03/08 00:00:40;;;;;;;8.57;5.85;;;4.20;66.70;;;;;;5092583;28;20029;-36
2022/03/08 00:03:06;;;;;;;10.00;6.10;;;4.20;66.70;;;;;;5092306;28;20028;-37
2022/03/08 00:05:31;;;;;;;9.00;5.97;;;4.20;66.70;;;;;;5092284;28;20016;-37
2022/03/08 00:07:58;;;;;;;8.95;6.07;;;4.20;66.70;;;;;;5092289;28;20380;-36
2022/03/08 00:10:25;;;;;;;9.85;6.28;;;4.20;66.70;;;;;;5092553;28;20020;-37
2022/03/08 00:12:51;;;;;;;9.02;5.55;;;4.20;66.80;;;;;;5092268;28;20147;-36
2022/03/08 00:15:21;;;;;;;8.90;5.90;;;4.20;66.80;;;;;;5092444;28;20122;-36
2022/03/08 00:17:47;;;;;;;8.80;5.65;;;4.10;66.80;;;;;;5092146;28;20024;-36
2022/03/08 00:20:14;;;;;;;9.02;5.55;;;4.20;66.80;;;;;;5092465;28;20488;-36
2022/03/08 00:22:40;;;;;;;9.52;6.00;;;4.10;66.70;;;;;;5092080;28;20032;-36
2022/03/08 00:25:08;;;;;;;8.63;6.15;;;4.10;66.70;;;;;;5074092;28;20024;-36
2022/03/08 00:27:34;;;;;;;8.82;5.78;;;4.10;66.80;;;;;;5091984;28;20055;-35
2022/03/08 00:30:00;;;;;;;7.82;5.75;;;4.00;66.80;;;;;;5073949;28;20022;-41
2022/03/08 00:32:26;;;;;;;7.53;5.43;;;4.00;66.80;;;;;;5092027;28;20077;-36
2022/03/08 00:34:52;;;;;;;8.52;5.88;;;4.00;66.80;;;;;;5092120;28;20028;-36
2022/03/08 00:37:18;;;;;;;8.60;5.65;;;4.00;66.80;;;;;;5092136;28;20028;-40
2022/03/08 00:39:44;;;;;;;7.93;5.57;;;4.00;66.80;;;;;;5093756;28;20123;-36
2022/03/08 00:42:11;;;;;;;6.47;4.78;;;4.00;66.70;;;;;;5095870;28;20024;-36
2022/03/08 00:44:42;;;;;;;9.52;6.07;;;4.00;66.70;;;;;;5095717;28;20024;-35
2022/03/08 00:47:09;;;;;;;7.20;5.30;;;4.00;66.70;;;;;;5095546;28;20550;-36
2022/03/08 00:49:36;;;;;;;8.52;5.05;;;4.00;66.70;;;;;;5095504;28;20048;-41
2022/03/08 00:52:02;;;;;;;7.90;5.32;;;4.00;66.70;;;;;;5077407;28;20020;-36
2022/03/08 00:54:28;;;;;;;7.72;5.38;;;4.00;66.60;;;;;;5095310;28;20040;-36
2022/03/08 00:56:54;;;;;;;8.30;5.45;;;3.90;66.60;;;;;;5095343;28;20379;-36
2022/03/08 00:59:19;;;;;;;7.45;5.25;;;3.90;66.50;;;;;;5095160;28;20027;-36
2022/03/08 01:01:45;;;;;;;7.70;5.20;;;3.90;66.50;;;;;;5094702;28;20055;-36
2022/03/08 01:04:10;;;;;;;8.45;5.90;;;3.90;66.50;;;;;;5076950;28;20020;-38
2022/03/08 01:06:36;;;;;;;8.90;6.00;;;3.90;66.40;;;;;;5095133;28;20016;-37
2022/03/08 01:09:03;;;;;;;7.60;5.57;;;3.90;66.40;;;;;;5095276;28;20095;-38
2022/03/08 01:11:28;;;;;;;8.13;5.35;;;3.90;66.40;;;;;;5095064;28;20127;-36
2022/03/08 01:13:54;;;;;;;7.57;4.93;;;3.80;66.30;;;;;;5094800;28;20059;-38
2022/03/08 01:16:20;;;;;;;9.23;5.43;;;3.80;66.30;;;;;;5094924;28;20107;-38
2022/03/08 01:18:47;;;;;;;7.45;4.82;;;3.80;66.30;;;;;;5076811;28;20032;-38
2022/03/08 01:21:14;;;;;;;7.28;4.85;;;3.80;66.20;;;;;;5095232;28;20032;-36
2022/03/08 01:23:43;;;;;;;6.78;4.78;;;3.80;66.20;;;;;;5076446;28;20373;-36
2022/03/08 01:26:09;;;;;;;9.60;6.00;;;3.80;66.20;;;;;;5094656;28;20046;-37
2022/03/08 01:28:34;;;;;;;7.28;5.40;;;3.80;66.10;;;;;;5094605;28;20103;-36
2022/03/08 01:31:00;;;;;;;7.07;5.00;;;3.80;66.00;;;;;;5076381;28;20141;-36
2022/03/08 01:33:26;;;;;;;8.05;5.47;;;3.70;66.00;;;;;;5094502;28;20028;-37
2022/03/08 01:35:52;;;;;;;7.60;5.22;;;3.70;66.00;;;;;;5094847;28;20035;-37
2022/03/08 01:38:17;;;;;;;7.75;5.32;;;3.70;66.00;;;;;;5094645;28;20056;-36
2022/03/08 01:40:43;;;;;;;8.38;5.15;;;3.70;66.00;;;;;;5076316;28;20114;-38
2022/03/08 01:43:09;;;;;;;7.88;4.85;;;3.70;65.90;;;;;;5076449;28;20031;-37
2022/03/08 01:45:35;;;;;;;8.43;5.13;;;3.70;65.90;;;;;;5076371;28;20028;-37
2022/03/08 01:48:01;;;;;;;11.23;4.90;;;3.70;65.90;;;;;;5076328;28;20028;-37
2022/03/08 01:50:26;;;;;;;7.00;5.07;;;3.60;65.90;;;;;;5094068;28;20020;-37
2022/03/08 01:52:52;;;;;;;8.48;5.45;;;3.60;65.80;;;;;;5094182;28;20051;-37
2022/03/08 01:55:19;;;;;;;7.65;5.70;;;3.60;65.80;;;;;;5076036;28;20059;-37
2022/03/08 01:57:47;;;;;;;8.27;5.55;;;3.50;65.80;;;;;;5094073;28;20032;-37
2022/03/08 02:00:18;;;;;;;8.93;5.20;;;3.50;65.80;;;;;;5094496;28;20124;-37
2022/03/08 02:02:44;;;;;;;7.30;4.57;;;3.50;65.70;;;;;;5094108;28;20070;-38
2022/03/08 02:05:11;;;;;;;7.30;4.63;;;3.50;65.70;;;;;;5094467;28;20047;-36
2022/03/08 02:07:37;;;;;;;6.47;5.03;;;3.50;65.70;;;;;;5075862;28;20020;-38
2022/03/08 02:10:04;;;;;;;7.47;5.05;;;3.50;65.70;;;;;;5094043;28;20073;-36
2022/03/08 02:12:30;;;;;;;6.07;4.57;;;3.50;65.60;;;;;;5094217;28;20059;-36
2022/03/08 02:14:56;;;;;;;7.35;4.60;;;3.40;65.50;;;;;;5093780;28;20066;-38
2022/03/08 02:17:22;;;;;;;6.30;4.85;;;3.40;65.50;;;;;;5093696;28;20028;-36
2022/03/08 02:19:47;;;;;;;8.48;4.57;;;3.40;65.50;;;;;;5093703;28;20031;-38
2022/03/08 02:22:13;;;;;;;7.80;4.50;;;3.40;65.50;;;;;;5093587;28;20112;-38
2022/03/08 02:24:38;;;;;;;5.80;4.53;;;3.40;65.50;;;;;;5093438;28;20035;-38
2022/03/08 02:27:05;;;;;;;8.02;4.30;;;3.40;65.50;;;;;;5093495;28;20542;-37
2022/03/08 02:29:31;;;;;;;6.38;4.63;;;3.40;65.40;;;;;;5075208;28;20020;-36
2022/03/08 02:31:57;;;;;;;6.57;4.45;;;3.40;65.40;;;;;;5093434;28;20099;-38
2022/03/08 02:34:23;;;;;;;5.95;4.05;;;3.40;65.40;;;;;;5075327;28;20028;-37
2022/03/08 02:37:08;;;;;;;6.05;4.18;;;3.40;65.40;;;;;;5093272;28;20061;-37
2022/03/08 02:39:35;;;;;;;6.68;4.90;;;3.40;65.30;;;;;;5093255;28;20468;-36
2022/03/08 02:42:02;;;;;;;6.20;4.10;;;3.30;65.30;;;;;;5093107;28;20028;-36
2022/03/08 02:44:27;;;;;;;6.20;4.45;;;3.30;65.30;;;;;;5093030;28;20032;-36
2022/03/08 02:46:54;;;;;;;6.18;4.32;;;3.30;65.30;;;;;;5074820;28;20412;-37
2022/03/08 02:49:19;;;;;;;5.38;4.38;;;3.30;65.20;;;;;;5093152;28;20089;-38
2022/03/08 02:51:46;;;;;;;5.93;4.10;;;3.30;65.20;;;;;;5093002;28;20439;-36
2022/03/08 02:54:12;;;;;;;5.60;3.92;;;3.30;65.20;;;;;;5092879;28;20031;-36
2022/03/08 02:56:38;;;;;;;6.63;4.15;;;3.20;65.10;;;;;;5093005;28;20043;-36
2022/03/08 02:59:03;;;;;;;4.78;3.60;;;3.30;65.10;;;;;;5075150;28;20565;-36
2022/03/08 03:01:29;;;;;;;4.72;3.78;;;3.20;64.90;;;;;;5092922;28;20028;-36
2022/03/08 03:03:55;;;;;;;4.90;3.60;;;3.20;64.90;;;;;;5092105;28;20109;-37
2022/03/08 03:06:21;;;;;;;4.40;3.53;;;3.30;65.00;;;;;;5093227;28;20020;-37
2022/03/08 03:08:46;;;;;;;5.18;3.92;;;3.20;64.80;;;;;;5092838;28;20073;-38
2022/03/08 03:11:12;;;;;;;6.10;3.72;;;3.20;64.80;;;;;;5092867;28;20073;-36
2022/03/08 03:13:38;;;;;;;5.05;3.30;;;3.20;64.70;;;;;;5092961;28;20064;-37
2022/03/08 03:16:03;;;;;;;6.47;3.90;;;3.20;64.60;;;;;;5093208;28;20128;-38
2022/03/08 03:18:29;;;;;;;5.18;3.88;;;3.20;64.60;;;;;;5092952;28;20028;-37
2022/03/08 03:20:54;;;;;;;6.10;3.50;;;3.20;64.60;;;;;;5092732;28;20024;-37
2022/03/08 03:23:20;;;;;;;4.65;3.50;;;3.20;64.60;;;;;;5092855;28;20057;-37
2022/03/08 03:25:46;;;;;;;5.40;3.97;;;3.20;64.50;;;;;;5092845;28;20024;-37
2022/03/08 03:28:11;;;;;;;6.30;3.85;;;3.20;64.50;;;;;;5092767;28;20020;-36
2022/03/08 03:30:37;;;;;;;5.40;3.40;;;3.10;64.50;;;;;;5074598;28;20147;-37
2022/03/08 03:33:03;;;;;;;4.68;3.60;;;3.20;64.50;;;;;;5092591;28;20043;-36
2022/03/08 03:35:29;;;;;;;5.10;3.88;;;3.10;64.50;;;;;;5092725;28;20078;-36
2022/03/08 03:37:55;;;;;;;4.65;3.85;;;3.20;64.50;;;;;;5092606;28;20123;-36
2022/03/08 03:40:21;;;;;;;5.15;3.55;;;3.10;64.50;;;;;;5092663;28;20067;-38
2022/03/08 03:42:46;;;;;;;3.92;3.28;;;3.10;64.40;;;;;;5092526;28;20488;-37
2022/03/08 03:45:13;;;;;;;5.82;3.70;;;3.10;64.40;;;;;;5092688;28;20024;-37
2022/03/08 03:47:39;;;;;;;5.43;3.60;;;3.10;64.40;;;;;;5074499;28;20040;-36
2022/03/08 03:50:08;;;;;;;4.32;3.60;;;3.10;64.50;;;;;;5092614;28;20020;-36
2022/03/08 03:52:33;;;;;;;5.15;3.60;;;3.00;64.30;;;;;;5092538;28;20551;-37
2022/03/08 03:55:00;;;;;;;3.67;3.05;;;3.00;64.40;;;;;;5092311;28;20132;-38
2022/03/08 03:57:25;;;;;;;5.10;3.22;;;3.00;64.40;;;;;;5092723;28;20115;-36
2022/03/08 03:59:51;;;;;;;3.53;3.17;;;3.00;64.40;;;;;;5092412;28;20090;-36
2022/03/08 04:02:16;;;;;;;4.07;3.33;;;3.00;64.40;;;;;;5092326;28;20024;-36
2022/03/08 04:04:42;;;;;;;4.32;3.30;;;3.00;64.40;;;;;;5092603;28;20103;-36
2022/03/08 04:07:08;;;;;;;4.72;3.65;;;3.00;64.40;;;;;;5092376;28;20123;-37
2022/03/08 04:09:33;;;;;;;4.90;3.35;;;3.00;64.40;;;;;;5092333;28;20032;-36
2022/03/08 04:11:59;;;;;;;4.80;3.60;;;2.90;64.40;;;;;;5092387;28;20165;-36
2022/03/08 04:14:25;;;;;;;4.70;3.65;;;2.90;64.40;;;;;;5093763;28;20096;-36
2022/03/08 04:16:52;;;;;;;4.82;3.15;;;2.90;64.40;;;;;;5096555;28;20515;-36
2022/03/08 04:19:18;;;;;;;4.75;3.70;;;2.90;64.30;;;;;;5096546;28;20030;-37
2022/03/08 04:21:43;;;;;;;4.78;3.22;;;2.90;64.40;;;;;;5096132;28;20459;-36
2022/03/08 04:24:09;;;;;;;4.05;3.20;;;2.90;64.30;;;;;;5095962;28;20084;-38
2022/03/08 04:26:34;;;;;;;4.72;3.30;;;2.90;64.30;;;;;;5096146;28;20051;-37
2022/03/08 04:29:00;;;;;;;4.93;3.42;;;2.80;64.20;;;;;;5095843;28;20024;-37
2022/03/08 04:31:25;;;;;;;5.47;3.30;;;2.80;64.20;;;;;;5096019;28;20024;-38
2022/03/08 04:33:51;;;;;;;4.05;3.35;;;2.80;64.10;;;;;;5096011;28;20077;-39
2022/03/08 04:36:17;;;;;;;4.20;3.40;;;2.80;64.10;;;;;;5095892;28;20028;-37
2022/03/08 04:38:42;;;;;;;6.00;3.72;;;2.80;64.10;;;;;;5096095;28;20475;-36
2022/03/08 04:41:08;;;;;;;4.95;3.60;;;2.80;64.30;;;;;;5095775;28;20081;-37
2022/03/08 04:43:34;;;;;;;4.55;3.60;;;2.80;64.20;;;;;;5095604;28;20028;-37
2022/03/08 04:45:59;;;;;;;4.38;3.55;;;2.80;64.10;;;;;;5095788;28;20380;-37
2022/03/08 04:48:25;;;;;;;4.72;3.55;;;2.80;64.10;;;;;;5095602;28;20024;-36
2022/03/08 04:50:51;;;;;;;5.20;3.70;;;2.80;64.10;;;;;;5095530;28;20081;-36
2022/03/08 04:53:16;;;;;;;5.90;3.55;;;2.70;64.00;;;;;;5077334;28;20108;-37
2022/03/08 04:55:42;;;;;;;5.63;3.80;;;2.70;63.90;;;;;;5076916;28;20048;-36
2022/03/08 04:58:08;;;;;;;4.13;3.22;;;2.70;63.90;;;;;;5095344;28;20035;-36
2022/03/08 05:00:33;;;;;;;4.32;3.25;;;2.70;63.90;;;;;;5077177;28;20032;-37
2022/03/08 05:02:59;;;;;;;4.78;3.53;;;2.70;63.80;;;;;;5095390;28;20039;-36
2022/03/08 05:05:24;;;;;;;5.68;3.33;;;2.70;63.80;;;;;;5095189;28;20032;-37
2022/03/08 05:07:50;;;;;;;5.13;2.95;;;2.70;63.80;;;;;;5094968;28;20024;-37
2022/03/08 05:10:16;;;;;;;4.10;3.45;;;2.70;63.80;;;;;;5095322;28;20032;-38
2022/03/08 05:12:42;;;;;;;4.28;3.25;;;2.70;63.80;;;;;;5095068;28;20032;-36
2022/03/08 05:15:09;;;;;;;5.03;3.65;;;2.70;63.90;;;;;;5095359;28;20039;-38
2022/03/08 05:17:35;;;;;;;5.13;3.05;;;2.70;64.00;;;;;;5094907;28;20063;-36
2022/03/08 05:20:03;;;;;;;3.53;3.22;;;2.70;63.90;;;;;;5095005;28;20491;-36
2022/03/08 05:22:28;;;;;;;4.45;3.38;;;2.70;64.20;;;;;;5095064;28;20531;-38
2022/03/08 05:24:54;;;;;;;4.60;3.28;;;2.70;64.10;;;;;;5094778;28;20157;-36
2022/03/08 05:27:19;;;;;;;4.88;3.38;;;2.60;64.10;;;;;;5093961;28;20476;-38
2022/03/08 05:29:45;;;;;;;3.90;3.30;;;2.60;64.20;;;;;;5094947;28;20020;-37
2022/03/08 05:32:10;;;;;;;5.70;3.60;;;2.70;64.20;;;;;;5094609;28;20123;-38
2022/03/08 05:34:36;;;;;;;6.18;3.78;;;2.60;64.10;;;;;;5094575;28;20046;-36
2022/03/08 05:37:02;;;;;;;5.13;3.42;;;2.70;64.10;;;;;;5094549;28;20042;-37
2022/03/08 05:39:27;;;;;;;4.85;3.40;;;2.70;64.10;;;;;;5094492;28;20109;-36
2022/03/08 05:41:53;;;;;;;4.57;3.45;;;2.70;64.10;;;;;;5094494;28;20019;-36
2022/03/08 05:44:18;;;;;;;4.07;2.92;;;2.70;64.10;;;;;;5094354;28;20042;-36
2022/03/08 05:46:44;;;;;;;3.28;2.88;;;2.70;64.50;;;;;;5094672;28;20028;-36
2022/03/08 05:49:09;;;;;;;4.32;3.42;;;2.70;64.30;;;;;;5094383;28;20063;-38
2022/03/08 05:51:35;;;;;;;5.32;4.13;;;2.70;64.40;;;;;;5076208;28;20479;-37
2022/03/08 05:54:01;;;;;;;5.28;4.03;;;2.60;64.30;;;;;;5094591;28;20492;-37
2022/03/08 05:56:27;;;;;;;5.03;3.80;;;2.60;64.20;;;;;;5094217;28;20052;-37
2022/03/08 05:58:52;;;;;;;5.50;3.53;;;2.60;64.20;;;;;;5094202;28;20541;-38
2022/03/08 06:01:18;;;;;;;5.03;3.53;;;2.60;64.30;;;;;;5094202;28;20066;-37
2022/03/08 06:03:44;;;;;;;4.65;3.58;;;2.60;64.30;;;;;;5094115;28;20484;-37
2022/03/08 06:06:10;;;;;;;6.35;3.90;;;2.60;64.30;;;;;;5076115;28;20031;-37
2022/03/08 06:08:35;;;;;;;5.20;3.30;;;2.60;64.30;;;;;;5093951;28;20384;-36
2022/03/08 06:11:01;;;;;;;4.00;3.20;;;2.60;64.40;;;;;;5094001;28;20050;-38
2022/03/08 06:13:27;;;;;;;3.38;2.78;;;2.60;64.50;;;;;;5093907;28;20028;-37
2022/03/08 06:15:52;;;;;;;3.88;2.95;;;2.60;65.30;;;;;;5075622;28;20115;-37
2022/03/08 06:18:18;;;;;;;4.45;3.40;;;2.60;65.00;;;;;;5093734;28;20028;-38
2022/03/08 06:20:43;;;;;;;5.40;3.88;;;2.60;65.20;;;;;;5093872;28;20028;-37
2022/03/08 06:23:09;;;;;;;6.70;4.22;;;2.60;65.30;;;;;;5093961;28;20361;-38
2022/03/08 06:25:35;;;;;;;4.70;3.50;;;2.60;65.00;;;;;;5093818;28;20020;-36
2022/03/08 06:28:00;;;;;;;5.18;3.60;;;2.60;65.00;;;;;;5093784;28;20024;-38
2022/03/08 06:30:26;;;;;;;4.60;3.60;;;2.60;65.10;;;;;;5093542;28;20028;-38
2022/03/08 06:32:52;;;;;;;4.35;3.50;;;2.60;65.10;;;;;;5093689;28;20024;-37
2022/03/08 06:35:19;;;;;;;4.97;3.70;;;2.70;65.00;;;;;;5093757;28;20040;-37
2022/03/08 06:41:07;;;;;;;3.85;3.33;;;2.70;64.70;;;;;;5093945;28;20073;-37
2022/03/08 06:43:32;;;;;;;4.07;2.97;;;2.70;65.70;;;;;;5075262;28;20024;-37
2022/03/08 06:45:58;;;;;;;5.32;3.33;;;2.70;65.40;;;;;;5093605;28;20032;-37
2022/03/08 06:48:23;;;;;;;4.68;3.53;;;2.70;65.70;;;;;;5093410;28;20028;-36
2022/03/08 06:50:49;;;;;;;3.85;3.10;;;2.70;65.70;;;;;;5093483;28;20023;-37
2022/03/08 06:53:15;;;;;;;4.97;3.65;;;2.70;66.20;;;;;;5093421;28;20090;-37
2022/03/08 06:55:40;;;;;;;5.10;3.47;;;2.80;67.10;;;;;;5071572;28;20044;-37
2022/03/08 06:58:06;;;;;;;4.82;3.50;;;2.80;66.50;;;;;;5073085;28;20108;-37
2022/03/08 07:00:32;;;;;;;5.78;3.30;;;2.80;66.10;;;;;;5073010;28;20202;-37
2022/03/08 07:02:58;;;;;;;5.35;3.65;;;2.90;66.40;;;;;;5072604;28;20056;-37
2022/03/08 07:05:23;;;;;;;4.85;3.30;;;2.90;66.00;;;;;;5073013;28;20451;-37
2022/03/08 07:07:49;;;;;;;3.60;2.95;;;3.00;66.00;;;;;;5071687;28;20020;-39
2022/03/08 07:10:14;;;;;;;5.57;3.42;;;3.00;66.50;;;;;;5072955;28;20067;-39
2022/03/08 07:12:40;;;;;;;6.20;3.70;;;3.00;66.20;;;;;;5071645;28;20387;-37
2022/03/08 07:15:07;;;;;;;5.90;3.80;;;3.10;66.30;;;;;;5072791;28;20033;-37
2022/03/08 07:17:32;;;;;;;5.10;4.10;;;3.10;65.80;;;;;;5072937;28;20020;-39
2022/03/08 07:19:58;;;;;;;4.32;3.70;;;3.20;65.50;;;;;;5072776;28;20039;-37
2022/03/08 07:22:24;;;;;;;4.60;3.58;;;3.20;65.40;;;;;;5071379;28;20033;-37
2022/03/08 07:24:49;;;;;;;3.85;3.42;;;3.30;65.90;;;;;;5072910;28;20024;-38
2022/03/08 07:27:15;;;;;;;5.40;3.90;;;3.30;66.20;;;;;;5072775;28;20032;-37
2022/03/08 07:29:43;;;;;;;4.70;3.67;;;3.30;66.30;;;;;;5072779;28;20033;-37
2022/03/08 07:32:09;;;;;;;4.18;3.42;;;3.30;66.30;;;;;;5072650;28;20028;-37
2022/03/08 07:34:35;;;;;;;4.38;3.70;;;3.40;66.70;;;;;;5072659;28;20415;-39
2022/03/08 07:37:01;;;;;;;5.05;3.50;;;3.40;66.30;;;;;;5072765;28;20392;-35
2022/03/08 07:39:26;;;;;;;4.40;3.70;;;3.50;67.00;;;;;;5072713;28;20111;-36
2022/03/08 07:41:52;;;;;;;5.55;4.10;;;3.50;67.30;;;;;;5072770;28;20055;-36
2022/03/08 07:44:17;;;;;;;4.72;3.40;;;3.50;66.60;;;;;;5072515;28;20039;-37
2022/03/08 07:46:43;;;;;;;5.47;3.65;;;3.60;66.90;;;;;;5072604;28;20046;-38
2022/03/08 07:49:09;;;;;;;6.18;3.70;;;3.60;66.40;;;;;;5073627;28;20029;-38
2022/03/08 07:51:34;;;;;;;5.95;3.85;;;3.70;66.40;;;;;;5075422;28;20016;-37
2022/03/08 07:54:00;;;;;;;5.40;4.03;;;3.70;66.00;;;;;;5076587;28;20525;-37
2022/03/08 07:56:26;;;;;;;7.00;3.80;;;3.80;66.00;;;;;;5096317;28;20055;-36
2022/03/08 07:58:52;;;;;;;4.65;3.67;;;3.80;66.50;;;;;;5097052;28;20024;-36
2022/03/08 08:01:18;;;;;;;4.85;3.58;;;3.80;66.60;;;;;;5096745;28;20032;-36
2022/03/08 08:03:43;;;;;;;5.32;3.88;;;3.90;66.60;;;;;;5096718;28;20028;-38
2022/03/08 08:06:09;;;;;;;5.38;3.88;;;4.00;66.60;;;;;;5096678;28;20024;-36
2022/03/08 08:08:35;;;;;;;5.90;3.70;;;4.00;66.40;;;;;;5096949;28;20050;-37
2022/03/08 08:11:00;;;;;;;4.55;3.70;;;4.10;66.30;;;;;;5096592;28;20121;-38
2022/03/08 08:13:27;;;;;;;3.95;3.03;;;4.10;66.00;;;;;;5096629;28;20035;-38
2022/03/08 08:15:52;;;;;;;7.03;3.80;;;4.20;66.90;;;;;;5096569;28;20036;-38
2022/03/08 08:18:18;;;;;;;5.05;3.30;;;4.20;67.30;;;;;;5096415;28;20038;-37
2022/03/08 08:20:44;;;;;;;5.43;3.70;;;4.30;68.10;;;;;;5096433;28;20097;-37
2022/03/08 08:23:09;;;;;;;4.63;3.03;;;4.30;68.10;;;;;;5096396;28;20106;-37
2022/03/08 08:25:35;;;;;;;5.15;3.60;;;4.40;69.50;;;;;;5096579;28;20032;-37
2022/03/08 08:28:00;;;;;;;4.53;3.53;;;4.40;68.60;;;;;;5096199;28;20461;-37
2022/03/08 08:30:26;;;;;;;4.93;3.25;;;4.50;70.00;;;;;;5096249;28;20020;-41
2022/03/08 08:32:52;;;;;;;4.53;3.53;;;4.60;70.60;;;;;;5096307;28;20103;-38
2022/03/08 08:35:18;;;;;;;5.05;3.88;;;4.60;70.30;;;;;;5096069;28;20039;-36
2022/03/08 08:37:44;;;;;;;5.93;3.88;;;4.70;70.70;;;;;;5077823;28;20112;-37
2022/03/08 08:40:11;;;;;;;4.80;3.70;;;4.80;72.00;;;;;;5095871;28;20115;-37
2022/03/08 08:42:37;;;;;;;4.57;3.20;;;4.80;72.40;;;;;;5095860;28;20023;-38
2022/03/08 08:45:03;;;;;;;4.28;2.90;;;4.90;72.60;;;;;;5096032;28;20084;-37
2022/03/08 08:47:29;;;;;;;5.45;4.22;;;5.00;72.90;;;;;;5095941;28;20028;-38
2022/03/08 08:49:54;;;;;;;5.72;3.72;;;5.00;72.40;;;;;;5095923;28;20031;-38
2022/03/08 08:52:20;;;;;;;6.15;4.20;;;5.20;70.50;;;;;;5095907;28;20027;-38
2022/03/08 08:54:47;;;;;;;5.97;3.92;;;5.40;69.30;;;;;;5095700;28;20044;-37
2022/03/08 08:57:13;;;;;;;7.30;5.05;;;5.60;67.40;;;;;;5095756;28;20042;-38
2022/03/08 08:59:39;;;;;;;8.02;4.10;;;5.70;66.30;;;;;;5095638;28;20472;-37
2022/03/08 09:02:04;;;;;;;5.88;4.45;;;5.80;64.50;;;;;;5095740;28;20024;-38
2022/03/08 09:04:30;;;;;;;5.80;4.22;;;5.90;64.90;;;;;;5095647;28;20097;-38
2022/03/08 09:06:56;;;;;;;5.40;4.10;;;6.10;65.10;;;;;;5095909;28;20016;-37
2022/03/08 09:09:21;;;;;;;6.88;4.32;;;6.20;64.60;;;;;;5095664;28;20028;-38
2022/03/08 09:11:47;;;;;;;5.72;4.10;;;6.30;63.10;;;;;;5095657;28;20070;-39
2022/03/08 09:14:13;;;;;;;5.57;3.70;;;6.40;63.00;;;;;;5095613;28;20081;-37
2022/03/08 09:16:38;;;;;;;6.80;4.38;;;6.50;62.00;;;;;;5095517;28;20441;-38
2022/03/08 09:19:04;;;;;;;4.35;3.92;;;6.60;61.20;;;;;;5095329;28;20090;-37
2022/03/08 09:21:30;;;;;;;4.28;3.47;;;6.70;61.60;;;;;;5095681;28;20039;-38
2022/03/08 09:23:55;;;;;;;5.40;4.03;;;6.80;61.20;;;;;;5077168;28;20059;-39
2022/03/08 09:26:21;;;;;;;6.32;4.10;;;6.80;59.90;;;;;;5095217;28;20032;-39
2022/03/08 09:28:47;;;;;;;5.50;3.78;;;6.90;59.70;;;;;;5095242;28;20598;-39
2022/03/08 09:31:12;;;;;;;7.78;3.50;;;6.90;59.90;;;;;;5095115;28;20031;-38
2022/03/08 09:33:39;;;;;;;7.32;4.18;;;7.00;59.40;;;;;;5095318;28;20107;-39
2022/03/08 09:36:05;;;;;;;5.00;3.33;;;7.10;59.00;;;;;;5095033;28;20028;-39
2022/03/08 09:38:31;;;;;;;6.32;3.80;;;7.20;59.50;;;;;;5076893;28;20364;-39
2022/03/08 09:40:56;;;;;;;4.60;3.25;;;7.30;59.00;;;;;;5095044;28;20032;-38
2022/03/08 09:43:22;;;;;;;5.53;2.97;;;7.40;60.30;;;;;;5076773;28;20449;-38
2022/03/08 09:45:48;;;;;;;2.88;2.38;;;7.40;67.50;;;;;;5076833;28;20028;-39
2022/03/08 09:48:13;;;;;;;6.20;2.97;;;7.30;72.30;;;;;;5094874;28;20055;-41
2022/03/08 09:50:39;;;;;;;4.88;3.20;;;7.30;73.40;;;;;;5094800;28;20025;-39
2022/03/08 09:53:05;;;;;;;5.72;2.80;;;7.20;75.80;;;;;;5094748;28;20032;-38
2022/03/08 09:55:31;;;;;;;5.55;2.80;;;7.20;74.90;;;;;;5094524;28;20100;-39
2022/03/08 09:57:57;;;;;;;5.85;3.42;;;7.20;74.30;;;;;;5094756;28;20050;-38
2022/03/08 10:00:24;;;;;;;4.95;2.85;;;7.30;72.60;;;;;;5094622;28;20028;-38
2022/03/08 10:02:51;;;;;;;4.15;2.80;;;7.30;74.10;;;;;;5094482;28;20024;-38
2022/03/08 10:05:22;;;;;;;7.43;3.17;;;7.40;75.80;;;;;;5094538;28;20028;-39
2022/03/08 10:08:13;;;;;;;5.93;3.00;;;7.40;75.10;;;;;;5076407;28;20024;-39
2022/03/08 10:11:01;;;;;;;4.20;2.35;;;7.40;76.00;;;;;;5094588;28;20099;-39
2022/03/08 10:13:30;;;;;;;3.42;2.50;;;7.40;76.00;;;;;;5093962;28;20392;-39
2022/03/08 10:16:06;;;;;;;3.42;2.28;;;7.50;76.30;;;;;;5094532;28;20487;-37
2022/03/08 10:18:37;;;;;;;5.85;3.45;;;7.50;76.80;;;;;;5094206;28;20085;-38
2022/03/08 10:21:03;;;;;;;6.68;2.80;;;7.60;76.20;;;;;;5094182;28;20028;-37
2022/03/08 10:23:40;;;;;;;5.18;2.50;;;7.70;76.00;;;;;;5094276;28;20090;-39
2022/03/08 10:26:05;;;;;;;5.70;2.78;;;7.70;76.10;;;;;;5094410;28;20077;-39
2022/03/08 10:28:31;;;;;;;4.88;2.60;;;7.80;76.30;;;;;;5094405;28;20028;-39
2022/03/08 10:30:56;;;;;;;4.57;2.42;;;7.80;75.90;;;;;;5094064;28;20094;-37
2022/03/08 10:33:33;;;;;;;6.88;2.22;;;7.90;76.10;;;;;;5094161;28;20027;-39
2022/03/08 10:35:59;;;;;;;3.75;1.70;;;7.90;75.90;;;;;;5094044;28;20479;-38
2022/03/08 10:38:25;;;;;;;3.22;2.30;;;8.00;76.40;;;;;;5075735;28;20057;-36
2022/03/08 10:40:50;;;;;;;3.15;2.53;;;8.10;75.40;;;;;;5075675;28;20042;-38
2022/03/08 10:43:17;;;;;;;5.40;2.97;;;8.10;75.90;;;;;;5094075;28;20024;-38
2022/03/08 10:45:48;;;;;;;3.95;2.80;;;8.10;74.60;;;;;;5094042;28;20023;-38
2022/03/08 10:48:17;;;;;;;3.90;2.97;;;8.20;71.90;;;;;;5093667;28;20055;-38
2022/03/08 10:50:43;;;;;;;4.38;3.20;;;8.30;72.90;;;;;;5093504;28;20095;-37
2022/03/08 10:53:11;;;;;;;5.32;3.35;;;8.40;72.30;;;;;;5075391;28;20458;-37
2022/03/08 10:55:44;;;;;;;4.53;2.80;;;8.50;72.50;;;;;;5093383;28;20052;-39
2022/03/08 10:58:12;;;;;;;5.05;3.20;;;8.60;73.20;;;;;;5093564;28;20424;-37
2022/03/08 11:00:45;;;;;;;3.08;2.30;;;8.60;72.10;;;;;;5093487;28;20074;-37
2022/03/08 11:03:13;;;;;;;4.18;1.98;;;8.70;72.40;;;;;;5093325;28;20032;-37
2022/03/08 11:05:47;;;;;;;3.60;2.60;;;8.80;72.70;;;;;;5093425;28;20081;-37
2022/03/08 11:08:13;;;;;;;3.78;2.00;;;8.80;71.90;;;;;;5093349;28;20024;-39
2022/03/08 11:10:40;;;;;;;4.10;2.75;;;8.90;71.80;;;;;;5093502;28;20032;-37
2022/03/08 11:13:07;;;;;;;3.08;2.33;;;9.00;71.20;;;;;;5075086;28;20024;-37
2022/03/08 11:15:38;;;;;;;3.08;2.35;;;9.10;71.10;;;;;;5093169;28;20032;-37
2022/03/08 11:18:07;;;;;;;2.92;2.47;;;9.20;70.90;;;;;;5093105;28;20035;-37
2022/03/08 11:20:34;;;;;;;5.88;2.70;;;9.20;70.70;;;;;;5093096;28;20024;-37
2022/03/08 11:23:00;;;;;;;7.60;4.05;;;9.30;70.50;;;;;;5092786;28;20480;-37
2022/03/08 11:25:29;;;;;;;12.88;6.30;;;9.40;71.00;;;;;;5092479;28;20073;-37
2022/03/08 11:27:55;;;;;;;9.77;5.53;;;9.40;71.00;;;;;;5093413;28;20376;-37
2022/03/08 11:30:25;;;;;;;9.73;4.95;;;9.50;71.40;;;;;;5093015;28;20036;-37
2022/03/08 11:33:13;;;;;;;6.78;4.13;;;9.50;71.50;;;;;;5074829;28;20431;-38
2022/03/08 11:36:00;;;;;;;6.93;3.80;;;9.50;70.00;;;;;;5093282;28;20032;-37
2022/03/08 11:38:26;;;;;;;6.60;3.83;;;9.50;69.80;;;;;;5093280;28;20490;-38
2022/03/08 11:40:57;;;;;;;4.80;3.17;;;9.50;68.70;;;;;;5093044;28;20031;-38
2022/03/08 11:43:40;;;;;;;5.65;3.47;;;9.60;67.50;;;;;;5092710;28;20090;-38
2022/03/08 11:46:18;;;;;;;5.57;3.35;;;9.70;64.30;;;;;;5092832;28;20064;-36
2022/03/08 11:48:58;;;;;;;6.22;3.55;;;9.70;60.40;;;;;;5092777;28;20035;-37
2022/03/08 11:51:26;;;;;;;5.13;3.33;;;9.70;59.70;;;;;;5092801;28;20023;-39
2022/03/08 11:54:09;;;;;;;5.80;3.13;;;9.80;58.40;;;;;;5092865;28;20029;-38
2022/03/08 11:56:47;;;;;;;4.63;3.30;;;9.90;56.20;;;;;;5092996;28;20124;-37
2022/03/08 11:59:13;;;;;;;5.68;3.00;;;9.90;55.30;;;;;;5092659;28;20052;-37
2022/03/08 12:01:39;;;;;;;7.53;3.50;;;9.90;53.70;;;;;;5074551;28;20447;-37
2022/03/08 12:04:23;;;;;;;5.25;3.53;;;10.00;54.10;;;;;;5092668;28;20028;-37
2022/03/08 12:06:50;;;;;;;5.25;3.38;;;10.00;50.60;;;;;;5092796;28;20115;-38
2022/03/08 12:09:18;;;;;;;5.38;2.90;;;10.10;52.00;;;;;;5092546;28;20032;-38
2022/03/08 12:11:47;;;;;;;5.03;2.65;;;10.10;52.00;;;;;;5092522;28;20153;-39
2022/03/08 12:14:20;;;;;;;4.30;2.90;;;10.10;57.70;;;;;;5092803;28;20036;-38
2022/03/08 12:16:48;;;;;;;4.00;2.78;;;10.20;60.70;;;;;;5092654;28;20036;-37
2022/03/08 12:19:33;;;;;;;4.18;3.20;;;10.20;60.70;;;;;;5074423;28;20032;-39
2022/03/08 12:22:00;;;;;;;3.13;2.83;;;10.30;56.70;;;;;;5092553;28;20103;-39
2022/03/08 12:24:26;;;;;;;4.15;3.25;;;10.30;59.00;;;;;;5092490;28;20034;-39
2022/03/08 12:27:01;;;;;;;3.90;2.60;;;10.40;61.00;;;;;;5074467;28;20027;-39
2022/03/08 12:29:54;;;;;;;7.80;2.65;;;10.50;61.70;;;;;;5092858;28;20073;-38
2022/03/08 12:32:58;;;;;;;4.60;2.28;;;10.60;63.70;;;;;;5092387;28;20027;-38
2022/03/08 12:35:25;;;;;;;6.68;2.80;;;10.70;63.00;;;;;;4972568;28;20086;-38
2022/03/08 12:37:57;;;;;;;3.67;2.53;;;10.80;64.00;;;;;;4975130;28;20065;-38
2022/03/08 12:40:26;;;;;;;4.05;2.30;;;10.80;62.50;;;;;;5038237;28;20027;-39
2022/03/08 12:42:53;;;;;;;5.75;2.13;;;10.80;62.90;;;;;;5096124;28;20021;-38
2022/03/08 12:45:23;;;;;;;3.70;2.55;;;10.90;64.30;;;;;;5096236;28;20022;-38
2022/03/08 12:47:59;;;;;;;3.13;2.25;;;11.00;63.90;;;;;;5096369;28;20475;-39
2022/03/08 12:50:30;;;;;;;3.05;2.50;;;11.10;63.30;;;;;;5096139;28;20428;-38
2022/03/08 12:52:58;;;;;;;3.63;2.55;;;11.10;62.70;;;;;;5096152;28;20537;-39
2022/03/08 12:55:27;;;;;;;4.88;2.70;;;11.20;62.30;;;;;;5095741;28;20044;-38
2022/03/08 12:57:58;;;;;;;3.78;2.78;;;11.30;61.40;;;;;;5095733;28;20028;-39